createdAt,value
2022-12-18T00:01:49.510Z,37.47
2022-12-18T00:04:52.762Z,46.55
2022-12-18T00:07:55.655Z,43.85
2022-12-18T00:11:07.086Z,36.05
2022-12-18T00:14:12.588Z,43.05
2022-12-18T00:17:15.802Z,42.67
2022-12-18T00:20:24.721Z,46.37
2022-12-18T00:23:28.757Z,44.88
2022-12-18T00:26:34.627Z,41.05
2022-12-18T00:29:41.015Z,37.67
2022-12-18T00:32:44.174Z,41.47
2022-12-18T00:35:47.327Z,39.97
2022-12-18T00:38:50.477Z,37.45
2022-12-18T00:42:12.645Z,39.33
2022-12-18T00:45:16.067Z,42.72
2022-12-18T00:48:19.246Z,47.05
2022-12-18T00:51:22.155Z,40.67
2022-12-18T00:54:25.475Z,44.95
2022-12-18T00:57:28.439Z,36.75
2022-12-18T01:00:31.748Z,43.20
2022-12-18T01:03:34.608Z,38.90
2022-12-18T01:06:38.091Z,50.50
2022-12-18T01:09:41.252Z,42.00
2022-12-18T01:12:44.969Z,52.17
2022-12-18T01:15:52.599Z,40.70
2022-12-18T01:18:55.877Z,44.38
2022-12-18T01:22:00.480Z,47.80
2022-12-18T01:25:05.384Z,49.30
2022-12-18T01:28:08.354Z,47.65
2022-12-18T01:31:22.863Z,46.50
2022-12-18T01:34:25.836Z,47.67
2022-12-18T01:37:29.014Z,44.78
2022-12-18T01:40:33.290Z,46.80
2022-12-18T01:43:44.963Z,44.80
2022-12-18T01:46:47.804Z,44.00
2022-12-18T01:49:51.666Z,47.67
2022-12-18T01:53:00.527Z,39.65
2022-12-18T01:56:04.385Z,39.83
2022-12-18T01:59:09.477Z,42.50
2022-12-18T02:02:13.535Z,47.47
2022-12-18T02:05:20.444Z,37.45
2022-12-18T02:08:37.446Z,42.97
2022-12-18T02:11:57.715Z,48.25
2022-12-18T02:15:11.405Z,39.50
2022-12-18T02:18:42.949Z,44.88
2022-12-18T02:21:53.168Z,35.55
2022-12-18T02:25:25.243Z,38.42
2022-12-18T02:28:33.316Z,33.10
2022-12-18T02:31:41.380Z,33.85
2022-12-18T02:34:44.986Z,42.13
2022-12-18T02:37:49.358Z,36.40
2022-12-18T02:40:54.892Z,40.60
2022-12-18T02:44:02.701Z,41.65
2022-12-18T02:47:07.291Z,32.83
2022-12-18T02:50:32.467Z,48.28
2022-12-18T02:53:47.616Z,38.10
2022-12-18T02:56:53.451Z,38.03
2022-12-18T03:00:04.940Z,39.67
2022-12-18T03:03:32.456Z,37.40
2022-12-18T03:06:42.297Z,36.95
2022-12-18T03:09:49.581Z,39.15
2022-12-18T03:12:56.013Z,35.78
2022-12-18T03:16:00.401Z,36.92
2022-12-18T03:19:07.170Z,39.97
2022-12-18T03:22:11.289Z,38.00
2022-12-18T03:25:16.279Z,38.70
2022-12-18T03:28:22.560Z,39.70
2022-12-18T03:31:27.544Z,39.53
2022-12-18T03:34:34.325Z,39.70
2022-12-18T03:37:39.588Z,38.65
2022-12-18T03:41:03.092Z,38.63
2022-12-18T03:44:29.437Z,42.65
2022-12-18T03:47:40.664Z,36.63
2022-12-18T03:50:59.115Z,38.33
2022-12-18T03:54:06.521Z,34.13
2022-12-18T03:57:19.895Z,38.13
2022-12-18T04:00:24.059Z,36.53
2022-12-18T04:03:30.264Z,40.10
2022-12-18T04:06:33.563Z,44.63
2022-12-18T04:09:37.987Z,40.42
2022-12-18T04:12:40.951Z,35.30
2022-12-18T04:15:46.324Z,31.77
2022-12-18T04:18:49.810Z,34.78
2022-12-18T04:21:55.213Z,39.60
2022-12-18T04:24:59.091Z,35.45
2022-12-18T04:28:04.159Z,42.70
2022-12-18T04:31:07.383Z,40.78
2022-12-18T04:34:10.719Z,36.70
2022-12-18T04:37:13.861Z,40.33
2022-12-18T04:40:17.280Z,45.38
2022-12-18T04:43:20.897Z,46.25
2022-12-18T04:46:24.217Z,45.33
2022-12-18T04:49:27.320Z,42.33
2022-12-18T04:52:30.579Z,40.72
2022-12-18T04:55:33.519Z,49.72
2022-12-18T04:58:38.094Z,38.97
2022-12-18T05:01:41.284Z,40.65
2022-12-18T05:04:45.452Z,39.88
2022-12-18T05:07:48.744Z,44.88
2022-12-18T05:11:06.824Z,42.17
2022-12-18T05:14:09.658Z,40.22
2022-12-18T05:17:12.844Z,44.13
2022-12-18T05:20:16.693Z,45.75
2022-12-18T05:23:20.646Z,48.55
2022-12-18T05:26:24.882Z,43.70
2022-12-18T05:29:28.054Z,47.20
2022-12-18T05:32:31.688Z,46.20
2022-12-18T05:35:34.778Z,44.50
2022-12-18T05:38:39.108Z,42.67
2022-12-18T05:41:42.476Z,49.00
2022-12-18T05:44:46.210Z,47.08
2022-12-18T05:47:49.427Z,43.35
2022-12-18T05:50:52.622Z,41.17
2022-12-18T05:53:56.207Z,38.55
2022-12-18T05:56:59.375Z,45.67
2022-12-18T06:00:03.162Z,40.33
2022-12-18T06:03:15.152Z,40.05
2022-12-18T06:06:21.213Z,44.95
2022-12-18T06:09:24.183Z,46.63
2022-12-18T06:12:27.438Z,43.42
2022-12-18T06:15:30.304Z,49.15
2022-12-18T06:18:33.958Z,47.67
2022-12-18T06:21:36.900Z,42.13
2022-12-18T06:24:40.964Z,42.60
2022-12-18T06:27:44.738Z,40.75
2022-12-18T06:30:49.451Z,44.50
2022-12-18T06:33:54.036Z,46.65
2022-12-18T06:36:58.566Z,48.13
2022-12-18T06:40:02.192Z,37.70
2022-12-18T06:43:05.451Z,41.90
2022-12-18T06:46:08.475Z,48.08
2022-12-18T06:49:11.869Z,39.38
2022-12-18T06:52:15.583Z,42.03
2022-12-18T06:55:18.883Z,38.80
2022-12-18T06:58:22.328Z,47.55
2022-12-18T07:01:25.374Z,49.33
2022-12-18T07:04:31.677Z,45.72
2022-12-18T07:07:35.662Z,44.15
2022-12-18T07:10:47.468Z,38.83
2022-12-18T07:13:53.978Z,45.35
2022-12-18T07:16:56.886Z,41.10
2022-12-18T07:20:00.124Z,45.70
2022-12-18T07:23:04.634Z,50.55
2022-12-18T07:26:10.059Z,47.78
2022-12-18T07:29:13.117Z,40.67
2022-12-18T07:32:16.285Z,48.58
2022-12-18T07:35:24.765Z,45.83
2022-12-18T07:38:28.556Z,50.50
2022-12-18T07:41:32.948Z,49.95
2022-12-18T07:44:40.081Z,45.25
2022-12-18T07:47:43.020Z,42.47
2022-12-18T07:50:46.211Z,43.20
2022-12-18T07:53:52.226Z,48.20
2022-12-18T07:56:55.952Z,40.72
2022-12-18T07:59:59.578Z,49.97
2022-12-18T08:03:03.112Z,49.47
2022-12-18T08:06:08.772Z,41.97
2022-12-18T08:09:11.956Z,48.30
2022-12-18T08:12:15.169Z,47.75
2022-12-18T08:15:18.471Z,44.00
2022-12-18T08:18:21.603Z,48.05
2022-12-18T08:21:27.294Z,44.90
2022-12-18T08:24:30.616Z,45.83
2022-12-18T08:27:33.431Z,45.97
2022-12-18T08:30:37.745Z,43.87
2022-12-18T08:33:42.032Z,52.50
2022-12-18T08:36:45.496Z,41.80
2022-12-18T08:39:48.467Z,44.13
2022-12-18T08:43:10.475Z,48.97
2022-12-18T08:46:13.633Z,46.13
2022-12-18T08:49:16.944Z,48.65
2022-12-18T08:52:19.867Z,56.20
2022-12-18T08:55:23.219Z,44.33
2022-12-18T08:58:26.350Z,48.75
2022-12-18T09:01:29.684Z,47.22
2022-12-18T09:04:32.984Z,50.72
2022-12-18T09:07:36.157Z,51.00
2022-12-18T09:10:46.401Z,57.50
2022-12-18T09:13:50.135Z,50.08
2022-12-18T09:16:53.125Z,44.28
2022-12-18T09:19:56.466Z,49.95
2022-12-18T09:23:00.610Z,45.58
2022-12-18T09:26:03.957Z,42.35
2022-12-18T09:29:08.793Z,58.87
2022-12-18T09:32:18.940Z,50.67
2022-12-18T09:35:25.297Z,52.53
2022-12-18T09:38:28.839Z,47.50
2022-12-18T09:41:56.945Z,61.20
2022-12-18T09:45:00.738Z,45.75
2022-12-18T09:48:04.965Z,50.85
2022-12-18T09:51:21.845Z,55.30
2022-12-18T09:54:33.244Z,52.88
2022-12-18T09:57:40.661Z,50.45
2022-12-18T10:00:43.811Z,58.42
2022-12-18T10:03:47.314Z,52.95
2022-12-18T10:07:08.936Z,52.15
2022-12-18T10:10:28.617Z,38.75
2022-12-18T10:13:37.766Z,48.65
2022-12-18T10:16:53.081Z,47.78
2022-12-18T10:19:59.807Z,55.27
2022-12-18T10:23:16.047Z,55.95
2022-12-18T10:26:19.358Z,60.33
2022-12-18T10:29:23.968Z,63.42
2022-12-18T10:32:29.827Z,55.75
2022-12-18T10:35:33.068Z,48.45
2022-12-18T10:38:36.059Z,53.00
2022-12-18T10:41:39.233Z,51.05
2022-12-18T10:44:42.157Z,52.30
2022-12-18T10:47:47.745Z,51.05
2022-12-18T10:54:23.344Z,59.42
2022-12-18T10:57:32.742Z,47.85
2022-12-18T11:00:37.165Z,52.95
2022-12-18T11:03:45.024Z,48.05
2022-12-18T11:07:01.181Z,49.75
2022-12-18T11:13:28.096Z,56.13
2022-12-18T11:16:34.928Z,50.47
2022-12-18T11:19:40.920Z,46.45
2022-12-18T11:22:44.047Z,51.08
2022-12-18T11:25:59.145Z,46.25
2022-12-18T11:29:18.438Z,44.37
2022-12-18T11:32:35.643Z,46.92
2022-12-18T11:35:43.495Z,48.87
2022-12-18T11:38:48.149Z,46.55
2022-12-18T11:42:10.304Z,46.67
2022-12-18T11:45:14.662Z,47.35
2022-12-18T11:48:22.674Z,44.15
2022-12-18T11:51:38.569Z,45.28
2022-12-18T11:54:41.549Z,46.10
2022-12-18T11:57:50.718Z,47.95
2022-12-18T12:01:13.274Z,45.88
2022-12-18T12:04:42.884Z,43.65
2022-12-18T12:08:07.244Z,46.33
2022-12-18T12:11:13.555Z,49.85
2022-12-18T12:14:40.572Z,46.00
2022-12-18T12:17:51.499Z,51.17
2022-12-18T12:21:17.367Z,50.65
2022-12-18T12:24:39.417Z,49.05
2022-12-18T12:27:52.385Z,44.88
2022-12-18T12:31:01.620Z,46.60
2022-12-18T12:34:16.515Z,46.95
2022-12-18T12:41:02.265Z,46.78
2022-12-18T12:46:58.915Z,37.95
2022-12-18T12:50:05.889Z,37.92
2022-12-18T12:53:19.510Z,37.03
2022-12-18T12:56:23.463Z,42.72
2022-12-18T12:59:54.314Z,44.95
2022-12-18T13:03:13.709Z,43.33
2022-12-18T13:06:44.511Z,46.15
2022-12-18T13:10:12.093Z,44.55
2022-12-18T13:13:23.329Z,43.87
2022-12-18T13:16:28.688Z,43.65
2022-12-18T13:19:31.627Z,45.08
2022-12-18T13:22:36.426Z,42.88
2022-12-18T13:25:39.426Z,46.33
2022-12-18T13:28:49.040Z,45.47
2022-12-18T13:31:51.859Z,42.45
2022-12-18T13:35:23.230Z,44.15
2022-12-18T13:38:27.446Z,41.63
2022-12-18T13:41:30.612Z,36.42
2022-12-18T13:44:40.824Z,45.33
2022-12-18T13:47:45.022Z,42.15
2022-12-18T13:51:04.921Z,41.45
2022-12-18T13:54:15.321Z,39.90
2022-12-18T13:57:29.163Z,41.47
2022-12-18T14:00:33.107Z,45.90
2022-12-18T14:03:36.793Z,58.67
2022-12-18T14:06:40.003Z,41.35
2022-12-18T14:10:18.837Z,45.63
2022-12-18T14:13:28.017Z,45.42
2022-12-18T14:16:31.473Z,51.75
2022-12-18T14:19:35.397Z,49.83
2022-12-18T14:22:38.561Z,44.08
2022-12-18T14:25:47.304Z,61.15
2022-12-18T14:28:50.527Z,46.83
2022-12-18T14:32:21.059Z,47.60
2022-12-18T14:35:25.212Z,55.58
2022-12-18T14:38:50.856Z,47.15
2022-12-18T14:41:54.393Z,49.45
2022-12-18T14:45:41.499Z,56.20
2022-12-18T14:48:48.567Z,58.42
2022-12-18T14:51:54.317Z,60.05
2022-12-18T14:54:57.595Z,78.37
2022-12-18T14:58:00.863Z,80.15
2022-12-18T15:01:04.545Z,72.10
2022-12-18T15:04:37.928Z,68.15
2022-12-18T15:07:44.208Z,64.40
2022-12-18T15:10:52.439Z,59.30
2022-12-18T15:13:56.717Z,62.08
2022-12-18T15:17:02.404Z,72.65
2022-12-18T15:20:11.646Z,78.60
2022-12-18T15:23:46.858Z,68.72
2022-12-18T15:26:51.583Z,68.77
2022-12-18T15:30:03.720Z,62.47
2022-12-18T15:33:28.891Z,60.88
2022-12-18T15:36:32.792Z,61.25
2022-12-18T15:39:37.029Z,63.15
2022-12-18T15:42:58.495Z,51.22
2022-12-18T15:46:18.128Z,63.45
2022-12-18T15:49:22.340Z,58.50
2022-12-18T15:52:27.938Z,63.63
2022-12-18T15:55:50.191Z,56.03
2022-12-18T15:58:55.323Z,60.33
2022-12-18T16:01:58.963Z,52.60
2022-12-18T16:05:04.613Z,59.00
2022-12-18T16:08:08.094Z,57.60
2022-12-18T16:11:42.174Z,59.03
2022-12-18T16:14:47.892Z,64.00
2022-12-18T16:17:54.208Z,63.33
2022-12-18T16:21:00.442Z,56.67
2022-12-18T16:24:05.144Z,54.78
2022-12-18T16:27:09.464Z,56.63
2022-12-18T16:30:19.984Z,59.13
2022-12-18T16:33:24.017Z,55.22
2022-12-18T16:36:28.760Z,53.50
2022-12-18T16:39:34.773Z,56.35
2022-12-18T16:42:41.291Z,53.17
2022-12-18T16:45:46.712Z,56.22
2022-12-18T16:48:51.478Z,53.83
2022-12-18T16:51:57.077Z,56.15
2022-12-18T16:55:02.313Z,63.45
2022-12-18T16:58:06.306Z,56.15
2022-12-18T17:01:12.333Z,59.22
2022-12-18T17:04:17.902Z,54.30
2022-12-18T17:07:24.049Z,62.85
2022-12-18T17:10:29.053Z,52.83
2022-12-18T17:13:35.677Z,58.22
2022-12-18T17:16:40.153Z,49.08
2022-12-18T17:19:45.097Z,50.90
2022-12-18T17:22:49.361Z,46.03
2022-12-18T17:25:57.905Z,50.22
2022-12-18T17:29:02.392Z,43.58
2022-12-18T17:32:06.956Z,53.83
2022-12-18T17:35:10.797Z,47.13
2022-12-18T17:38:15.533Z,52.83
2022-12-18T17:41:21.037Z,52.28
2022-12-18T17:44:26.029Z,43.80
2022-12-18T17:50:37.555Z,47.92
2022-12-18T17:53:44.409Z,45.30
2022-12-18T17:56:49.402Z,45.12
2022-12-18T17:59:54.140Z,52.80
2022-12-18T18:03:09.314Z,50.85
2022-12-18T18:06:14.941Z,54.65
2022-12-18T18:09:20.189Z,50.30
2022-12-18T18:12:43.158Z,47.85
2022-12-18T18:15:59.172Z,56.22
2022-12-18T18:19:13.588Z,51.90
2022-12-18T18:22:19.683Z,49.90
2022-12-18T18:25:25.521Z,50.12
2022-12-18T18:28:29.974Z,48.28
2022-12-18T18:31:40.696Z,49.88
2022-12-18T18:34:45.019Z,42.15
2022-12-18T18:37:50.181Z,50.53
2022-12-18T18:41:01.148Z,51.25
2022-12-18T18:44:07.193Z,47.25
2022-12-18T18:47:11.893Z,52.83
2022-12-18T18:50:17.754Z,46.05
2022-12-18T18:53:21.437Z,50.78
2022-12-18T18:57:04.116Z,55.55
2022-12-18T18:59:56.151Z,52.45
2022-12-18T19:03:01.052Z,61.13
2022-12-18T19:06:07.362Z,49.88
2022-12-18T19:09:13.065Z,46.60
2022-12-18T19:12:37.857Z,45.47
2022-12-18T19:15:46.096Z,50.22
2022-12-18T19:18:50.273Z,42.30
2022-12-18T19:21:55.923Z,50.53
2022-12-18T19:25:01.906Z,42.30
2022-12-18T19:28:06.877Z,46.25
2022-12-18T19:31:16.099Z,45.53
2022-12-18T19:34:22.972Z,59.47
2022-12-18T19:37:27.818Z,52.85
2022-12-18T19:40:32.958Z,52.58
2022-12-18T19:43:39.458Z,55.47
2022-12-18T19:46:46.597Z,52.35
2022-12-18T19:49:54.440Z,47.85
2022-12-18T19:53:00.975Z,43.08
2022-12-18T19:56:07.882Z,47.00
2022-12-18T19:59:12.597Z,44.88
2022-12-18T20:02:16.927Z,59.70
2022-12-18T20:05:25.752Z,49.72
2022-12-18T20:08:30.250Z,50.50
2022-12-18T20:11:42.068Z,47.55
2022-12-18T20:14:47.382Z,33.92
2022-12-18T20:17:53.666Z,47.80
2022-12-18T20:21:00.044Z,43.17
2022-12-18T20:24:10.184Z,41.40
2022-12-18T20:27:19.479Z,43.10
2022-12-18T20:30:24.052Z,43.17
2022-12-18T20:33:28.140Z,42.00
2022-12-18T20:36:34.251Z,53.13
2022-12-18T20:39:39.964Z,48.17
2022-12-18T20:42:45.421Z,46.75
2022-12-18T20:45:48.772Z,44.33
2022-12-18T20:48:53.228Z,43.72
2022-12-18T20:52:00.081Z,52.92
2022-12-18T20:55:05.521Z,46.97
2022-12-18T20:58:08.973Z,43.05
2022-12-18T21:01:14.889Z,41.42
2022-12-18T21:04:19.562Z,54.20
2022-12-18T21:07:23.399Z,42.20
2022-12-18T21:10:27.748Z,46.63
2022-12-18T21:13:31.318Z,50.90
2022-12-18T21:16:36.516Z,40.50
2022-12-18T21:19:41.210Z,41.80
2022-12-18T21:22:44.456Z,35.45
2022-12-18T21:25:49.961Z,42.28
2022-12-18T21:29:01.538Z,44.33
2022-12-18T21:32:05.490Z,46.70
2022-12-18T21:35:09.091Z,44.90
2022-12-18T21:38:12.239Z,65.25
2022-12-18T21:41:41.664Z,58.38
2022-12-18T21:44:48.026Z,63.47
2022-12-18T21:47:51.008Z,68.35
2022-12-18T21:50:54.167Z,63.53
2022-12-18T21:53:57.161Z,57.72
2022-12-18T21:57:02.512Z,54.28
2022-12-18T22:00:06.839Z,48.60
2022-12-18T22:03:18.665Z,47.53
2022-12-18T22:06:22.548Z,43.80
2022-12-18T22:09:25.961Z,37.25
2022-12-18T22:12:43.574Z,34.42
2022-12-18T22:15:47.513Z,33.47
2022-12-18T22:18:50.881Z,33.70
2022-12-18T22:21:54.419Z,41.25
2022-12-18T22:24:57.590Z,38.92
2022-12-18T22:28:19.299Z,36.75
2022-12-18T22:31:22.506Z,39.70
2022-12-18T22:34:26.609Z,40.30
2022-12-18T22:37:29.762Z,60.15
2022-12-18T22:40:32.647Z,61.70
2022-12-18T22:43:35.973Z,56.42
2022-12-18T22:46:50.045Z,56.58
2022-12-18T22:50:12.499Z,49.85
2022-12-18T22:53:15.413Z,51.58
2022-12-18T22:56:20.361Z,45.45
2022-12-18T22:59:24.503Z,52.08
2022-12-18T23:02:27.798Z,50.65
2022-12-18T23:05:31.322Z,52.72
2022-12-18T23:08:34.891Z,46.60
2022-12-18T23:11:38.790Z,46.22
2022-12-18T23:14:43.687Z,47.22
2022-12-18T23:17:46.776Z,43.60
2022-12-18T23:20:51.198Z,51.40
2022-12-18T23:23:54.453Z,40.65
2022-12-18T23:26:57.800Z,55.53
2022-12-18T23:30:00.723Z,43.08
2022-12-18T23:33:04.211Z,41.28
2022-12-18T23:36:08.576Z,61.13
2022-12-18T23:39:12.556Z,56.77
2022-12-18T23:42:30.256Z,49.30
2022-12-18T23:45:37.728Z,48.72
2022-12-18T23:48:41.568Z,52.60
2022-12-18T23:51:44.699Z,51.63
2022-12-18T23:54:47.612Z,43.25
2022-12-18T23:57:51.119Z,59.08
